Arlington, Nebraska
Current Conditions -  °F | °C
As of 8:35 AM on Monday 20 Oct 2014 (Local Time) from KFET Reporting Station
Clear Clear  
Wind Chill:   Ceiling: Unl
Heat Index:   Visibility: 10mi
Dew Point:   Wind: 3mph
Humidity: 88%   Direction: 280°W
Pressure: 30.09"   Gusts: NA
Location:  41.45°N, 96.35°W
Report Text: KFET 201335Z AUTO 28003KT 10SM CLR 07/06 A3009 RMK AO2 T00730055
Loading
Personal Weather Stations






























Interactive Weather Map
Tropical Storm Tracking
New forecast layout! Learn more

10-Day Weather Forecast

Advertisements
Track Severe Weather on mobile